Time;durP1;ratioP1;P1;durP2;ratioP2;P2;SDS_P1;SDS_P2;PMS_P1;PMS_P2;Temp;Humidity;BMP_temperature;BMP_pressure;BME280_temperature;BME280_humidity;BME280_pressure;Samples;Min_cycle;Max_cycle;Signal;HPM_P1;HPM_P2
2023/06/19 00:00:32;;;;;;;11.52;6.72;;;21.70;97.00;;;;;;4926375;28;218439;-68
2023/06/19 00:02:58;;;;;;;10.93;6.60;;;21.70;97.40;;;;;;4958696;28;20058;-67
2023/06/19 00:05:25;;;;;;;14.20;7.40;;;21.70;97.20;;;;;;4931775;28;214649;-68
2023/06/19 00:07:51;;;;;;;12.45;6.90;;;21.70;97.50;;;;;;4967568;28;20051;-68
2023/06/19 00:10:17;;;;;;;12.85;7.20;;;21.60;97.60;;;;;;4935974;28;213637;-69
2023/06/19 00:12:43;;;;;;;12.27;7.00;;;21.60;97.80;;;;;;4987039;28;20055;-68
2023/06/19 00:15:10;;;;;;;11.77;7.55;;;21.60;97.70;;;;;;4957461;28;210526;-68
2023/06/19 00:17:39;;;;;;;13.30;7.03;;;21.60;97.70;;;;;;4982554;28;20062;-68
2023/06/19 00:20:06;;;;;;;12.18;7.03;;;21.60;97.70;;;;;;4936244;28;208896;-69
2023/06/19 00:22:32;;;;;;;13.73;6.70;;;21.60;98.10;;;;;;4962446;28;20062;-69
2023/06/19 00:24:58;;;;;;;14.30;7.07;;;21.50;97.80;;;;;;4915025;28;210383;-69
2023/06/19 00:27:24;;;;;;;12.32;6.90;;;21.50;97.90;;;;;;4963476;28;20059;-69
2023/06/19 00:29:51;;;;;;;11.38;7.03;;;21.50;97.80;;;;;;4943820;28;209931;-69
2023/06/19 00:32:17;;;;;;;11.30;6.60;;;21.50;97.80;;;;;;4985128;28;20054;-69
2023/06/19 00:34:43;;;;;;;12.00;6.88;;;21.50;97.80;;;;;;4955751;28;221926;-68
2023/06/19 00:37:12;;;;;;;13.77;7.18;;;21.50;97.80;;;;;;4990718;28;20055;-68
2023/06/19 00:39:40;;;;;;;11.02;6.82;;;21.50;97.70;;;;;;4939771;28;207120;-69
2023/06/19 00:42:06;;;;;;;11.45;6.85;;;21.50;97.60;;;;;;4991283;28;20058;-69
2023/06/19 00:44:32;;;;;;;12.50;6.70;;;21.50;97.60;;;;;;4950518;28;209870;-69
2023/06/19 00:47:01;;;;;;;10.90;6.50;;;21.40;97.60;;;;;;4985252;28;20050;-69
2023/06/19 00:49:29;;;;;;;10.45;6.53;;;21.50;97.50;;;;;;4952875;28;210630;-69
2023/06/19 00:51:55;;;;;;;11.55;6.85;;;21.40;97.40;;;;;;4990453;28;20058;-69
2023/06/19 00:54:21;;;;;;;10.93;6.90;;;21.40;97.40;;;;;;4927797;28;214891;-69
2023/06/19 00:56:48;;;;;;;10.90;6.75;;;21.40;97.30;;;;;;4974147;28;20055;-69
2023/06/19 00:59:19;;;;;;;15.00;7.00;;;21.40;97.40;;;;;;4943897;28;206480;-69
2023/06/19 01:01:45;;;;;;;;;;;21.40;97.20;;;;;;4970014;28;20698;-69
2023/06/19 01:04:12;;;;;;;14.00;7.15;;;21.30;97.30;;;;;;4924466;28;211371;-69
2023/06/19 01:07:02;;;;;;;12.20;6.90;;;21.30;97.00;;;;;;4974677;28;20059;-69
2023/06/19 01:09:33;;;;;;;10.75;6.85;;;21.40;97.00;;;;;;4914552;28;210717;-69
2023/06/19 01:12:08;;;;;;;11.95;6.30;;;21.40;97.10;;;;;;4970170;28;20042;-69
2023/06/19 01:14:54;;;;;;;11.05;7.00;;;21.40;96.80;;;;;;4892249;28;205771;-69
2023/06/19 01:17:21;;;;;;;11.88;6.60;;;21.40;96.80;;;;;;4960223;28;20055;-70
2023/06/19 01:19:48;;;;;;;12.20;6.65;;;21.40;96.70;;;;;;4923403;28;212695;-69
2023/06/19 01:22:30;;;;;;;11.40;7.20;;;21.40;96.60;;;;;;4966563;28;20058;-69
2023/06/19 01:24:57;;;;;;;14.70;7.00;;;21.40;96.50;;;;;;4915259;28;230144;-69
2023/06/19 01:27:25;;;;;;;10.50;6.55;;;21.40;96.40;;;;;;4962052;28;20053;-69
2023/06/19 01:29:55;;;;;;;13.10;6.88;;;21.30;96.30;;;;;;4922330;28;209711;-69
2023/06/19 01:32:31;;;;;;;12.52;7.05;;;21.30;96.20;;;;;;4979291;28;20502;-70
2023/06/19 01:34:59;;;;;;;12.40;6.70;;;21.30;96.10;;;;;;4940330;28;213113;-69
2023/06/19 01:37:27;;;;;;;11.93;6.97;;;21.30;96.00;;;;;;4983259;28;20062;-69
2023/06/19 01:39:56;;;;;;;12.10;7.00;;;21.40;95.80;;;;;;4919363;28;212888;-68
2023/06/19 01:42:23;;;;;;;13.43;6.85;;;21.30;95.60;;;;;;4978860;28;20062;-69
2023/06/19 01:44:50;;;;;;;12.93;6.97;;;21.40;95.60;;;;;;4926799;28;209154;-69
2023/06/19 01:47:19;;;;;;;10.90;6.82;;;21.30;95.40;;;;;;4969651;28;20051;-69
2023/06/19 01:49:46;;;;;;;11.13;6.95;;;21.30;95.20;;;;;;4911811;28;210316;-69
2023/06/19 01:52:13;;;;;;;13.50;6.50;;;21.40;95.00;;;;;;4965332;28;20502;-69
2023/06/19 01:54:39;;;;;;;11.02;6.68;;;21.40;94.80;;;;;;4900220;28;212605;-70
2023/06/19 01:57:06;;;;;;;11.25;6.95;;;21.40;94.50;;;;;;4976862;28;20849;-69
2023/06/19 01:59:32;;;;;;;11.80;7.22;;;21.40;94.30;;;;;;4927514;28;211067;-69
2023/06/19 02:01:58;;;;;;;12.15;7.10;;;21.50;94.40;;;;;;4972807;28;20532;-69
2023/06/19 02:04:24;;;;;;;11.85;6.70;;;21.50;94.10;;;;;;4922676;28;225910;-69
2023/06/19 02:06:50;;;;;;;11.35;6.68;;;21.50;93.90;;;;;;4970524;28;20047;-69
2023/06/19 02:09:16;;;;;;;16.75;6.90;;;21.50;93.90;;;;;;4931725;28;211411;-69
2023/06/19 02:11:42;;;;;;;11.27;6.22;;;21.60;93.80;;;;;;4979776;28;20050;-69
2023/06/19 02:14:11;;;;;;;12.18;6.60;;;21.60;93.60;;;;;;4912338;28;212611;-69
2023/06/19 02:16:37;;;;;;;12.50;6.75;;;21.60;93.50;;;;;;4968720;28;20056;-69
2023/06/19 02:19:03;;;;;;;12.55;6.72;;;21.60;93.50;;;;;;4910146;28;240993;-69
2023/06/19 02:21:29;;;;;;;15.10;6.72;;;21.60;93.40;;;;;;4971397;28;20051;-69
2023/06/19 02:23:55;;;;;;;10.82;6.60;;;21.60;93.30;;;;;;4913677;28;206690;-69
2023/06/19 02:26:21;;;;;;;9.80;6.20;;;21.60;93.20;;;;;;4974372;28;20590;-70
2023/06/19 02:28:47;;;;;;;10.70;6.45;;;21.60;93.20;;;;;;4919754;28;207437;-69
2023/06/19 02:31:13;;;;;;;13.48;7.10;;;21.60;93.10;;;;;;4977013;28;20663;-70
2023/06/19 02:33:39;;;;;;;14.10;6.45;;;21.60;93.10;;;;;;4916250;28;221744;-70
2023/06/19 02:36:05;;;;;;;11.65;6.90;;;21.60;93.10;;;;;;5005118;28;20050;-69
2023/06/19 02:38:31;;;;;;;11.03;6.80;;;21.60;93.10;;;;;;4928333;28;215024;-69
2023/06/19 02:40:57;;;;;;;10.52;6.43;;;21.60;93.10;;;;;;4993611;28;20050;-69
2023/06/19 02:43:23;;;;;;;11.50;7.05;;;21.60;93.10;;;;;;4928808;28;212448;-69
2023/06/19 02:45:50;;;;;;;11.40;6.80;;;21.60;93.10;;;;;;4978262;28;20050;-69
2023/06/19 02:48:16;;;;;;;11.10;7.15;;;21.60;93.10;;;;;;4961251;28;212650;-69
2023/06/19 02:50:42;;;;;;;11.52;6.93;;;21.60;93.10;;;;;;4985946;28;206614;-70
2023/06/19 02:53:08;;;;;;;11.13;6.68;;;21.60;93.10;;;;;;4984058;28;20046;-69
2023/06/19 02:55:34;;;;;;;12.15;6.30;;;21.60;93.20;;;;;;4917094;28;278063;-69
2023/06/19 02:58:00;;;;;;;11.00;6.78;;;21.60;93.20;;;;;;4963278;28;20054;-69
2023/06/19 03:00:28;;;;;;;13.25;6.95;;;21.60;93.30;;;;;;4894474;28;214643;-69
2023/06/19 03:02:54;;;;;;;10.88;7.35;;;21.60;93.40;;;;;;4968810;28;20165;-69
2023/06/19 03:05:20;;;;;;;11.77;6.88;;;21.60;93.50;;;;;;4936841;28;220008;-70
2023/06/19 03:07:46;;;;;;;10.75;6.60;;;21.60;93.50;;;;;;4958494;28;20916;-69
2023/06/19 03:10:12;;;;;;;10.82;6.80;;;21.70;93.50;;;;;;4939399;28;220904;-69
2023/06/19 03:12:38;;;;;;;17.70;6.97;;;21.60;93.60;;;;;;4966169;28;20505;-68
2023/06/19 03:15:05;;;;;;;10.98;7.03;;;21.70;93.90;;;;;;4930923;28;210638;-68
2023/06/19 03:17:31;;;;;;;11.25;6.95;;;21.70;93.80;;;;;;4961316;28;20062;-69
2023/06/19 03:19:57;;;;;;;14.43;6.75;;;21.70;93.90;;;;;;4920897;28;215983;-68
2023/06/19 03:22:23;;;;;;;10.15;6.55;;;21.70;94.00;;;;;;4968675;28;20521;-68
2023/06/19 03:24:49;;;;;;;10.95;6.45;;;21.70;94.00;;;;;;4913956;28;209252;-68
2023/06/19 03:27:15;;;;;;;15.10;6.72;;;21.70;94.10;;;;;;4966273;28;20058;-69
2023/06/19 03:29:41;;;;;;;10.55;6.20;;;21.70;94.50;;;;;;4941281;28;258008;-69
2023/06/19 03:32:08;;;;;;;12.90;7.50;;;21.70;94.40;;;;;;4990261;28;20081;-69
2023/06/19 03:34:34;;;;;;;12.07;6.60;;;21.70;94.50;;;;;;4939810;28;212754;-68
2023/06/19 03:37:00;;;;;;;10.57;5.97;;;21.70;94.60;;;;;;4998917;28;20062;-69
2023/06/19 03:39:26;;;;;;;10.73;6.32;;;21.70;94.70;;;;;;4952334;28;212505;-68
2023/06/19 03:41:52;;;;;;;10.13;6.15;;;21.70;94.90;;;;;;4986763;28;20053;-68
2023/06/19 03:44:18;;;;;;;11.43;6.32;;;21.70;95.00;;;;;;4919469;28;212171;-69
2023/06/19 03:46:45;;;;;;;11.13;6.00;;;21.70;95.30;;;;;;4972333;28;20419;-68
2023/06/19 03:49:11;;;;;;;10.95;5.80;;;21.70;95.50;;;;;;4920516;28;210503;-69
2023/06/19 03:51:38;;;;;;;11.43;6.00;;;21.60;95.40;;;;;;4989145;28;20053;-69
2023/06/19 03:54:04;;;;;;;14.05;6.40;;;21.60;95.40;;;;;;4918845;28;212737;-69
2023/06/19 03:56:30;;;;;;;11.80;6.18;;;21.60;95.60;;;;;;4998727;28;20046;-69
2023/06/19 03:58:56;;;;;;;10.00;5.88;;;21.60;96.00;;;;;;4936227;28;207303;-69
2023/06/19 04:01:22;;;;;;;12.55;6.43;;;21.50;95.90;;;;;;4969550;28;20055;-69
2023/06/19 04:03:48;;;;;;;11.00;5.85;;;21.50;96.30;;;;;;4918720;28;211090;-69
2023/06/19 04:06:14;;;;;;;9.57;5.65;;;21.40;96.40;;;;;;4982954;28;20046;-69
2023/06/19 04:08:40;;;;;;;9.43;5.22;;;21.40;96.50;;;;;;4918528;28;209935;-69
2023/06/19 04:11:06;;;;;;;10.60;5.82;;;21.40;96.60;;;;;;4985185;28;20062;-70
2023/06/19 04:13:32;;;;;;;12.43;5.60;;;21.30;96.70;;;;;;4922906;28;208851;-69
2023/06/19 04:15:58;;;;;;;9.98;5.40;;;21.30;97.10;;;;;;4986835;28;20389;-68
2023/06/19 04:18:25;;;;;;;10.63;5.32;;;21.30;97.40;;;;;;4912635;28;246792;-68
2023/06/19 04:20:51;;;;;;;10.07;5.70;;;21.30;97.30;;;;;;5005364;28;20046;-69
2023/06/19 04:23:17;;;;;;;11.55;5.15;;;21.30;97.20;;;;;;4936825;28;213348;-67
2023/06/19 04:25:43;;;;;;;15.27;5.40;;;21.20;97.40;;;;;;4981203;28;20508;-68
2023/06/19 04:28:09;;;;;;;10.27;5.72;;;21.20;97.50;;;;;;4980046;28;20124;-69
2023/06/19 04:30:35;;;;;;;9.32;5.32;;;21.20;97.60;;;;;;4954342;28;46522;-69
2023/06/19 04:33:01;;;;;;;11.45;5.00;;;21.30;97.70;;;;;;4984611;28;20055;-69
2023/06/19 04:35:27;;;;;;;11.77;5.00;;;21.20;97.80;;;;;;4955556;28;209507;-69
2023/06/19 04:37:53;;;;;;;9.15;4.60;;;21.20;98.30;;;;;;4982584;28;20069;-69
2023/06/19 04:40:19;;;;;;;9.88;4.88;;;21.10;98.60;;;;;;4941096;28;211311;-69
2023/06/19 04:42:45;;;;;;;9.25;4.78;;;21.20;98.50;;;;;;4964912;28;20685;-69
2023/06/19 04:45:12;;;;;;;8.90;4.72;;;21.20;98.70;;;;;;4930673;28;212756;-69
2023/06/19 04:47:38;;;;;;;12.80;4.80;;;21.10;99.20;;;;;;4965512;28;20388;-69
2023/06/19 04:50:07;;;;;;;8.73;4.30;;;21.10;99.90;;;;;;4903680;28;210346;-67
2023/06/19 04:52:33;;;;;;;10.50;3.97;;;21.00;99.90;;;;;;4961049;28;20057;-68
2023/06/19 04:54:59;;;;;;;12.52;4.00;;;21.00;99.90;;;;;;4915489;28;212717;-66
2023/06/19 04:57:25;;;;;;;12.00;4.47;;;21.00;99.90;;;;;;4963763;28;20588;-67
2023/06/19 04:59:51;;;;;;;10.25;4.10;;;20.90;99.90;;;;;;4938566;28;212028;-67
2023/06/19 05:02:17;;;;;;;11.63;4.38;;;21.00;99.90;;;;;;4984456;28;20059;-70
2023/06/19 05:04:43;;;;;;;10.95;3.97;;;21.10;99.90;;;;;;4930230;28;227437;-68
2023/06/19 05:07:10;;;;;;;9.25;4.38;;;21.00;99.90;;;;;;4966895;28;20066;-68
2023/06/19 05:09:36;;;;;;;8.55;3.88;;;21.00;99.90;;;;;;4920634;28;212455;-69
2023/06/19 05:12:03;;;;;;;9.20;3.97;;;20.90;99.90;;;;;;4964504;28;20058;-67
2023/06/19 05:14:29;;;;;;;8.27;4.00;;;20.90;99.90;;;;;;4931663;28;225851;-69
2023/06/19 05:16:55;;;;;;;8.73;3.83;;;21.00;99.90;;;;;;4965698;28;20054;-70
2023/06/19 05:19:21;;;;;;;10.63;3.90;;;21.00;99.90;;;;;;4912352;28;209550;-69
2023/06/19 05:21:47;;;;;;;8.48;3.90;;;21.10;99.90;;;;;;4968177;28;20061;-68
2023/06/19 05:24:13;;;;;;;9.18;3.80;;;21.20;99.90;;;;;;4927731;28;175869;-69
2023/06/19 05:26:39;;;;;;;9.52;3.83;;;21.30;99.90;;;;;;4974392;28;20046;-68
2023/06/19 05:29:08;;;;;;;8.32;4.10;;;21.30;99.90;;;;;;4920729;28;207658;-69
2023/06/19 05:31:35;;;;;;;10.45;3.67;;;21.30;99.90;;;;;;4967812;28;20079;-68
2023/06/19 05:34:01;;;;;;;8.93;3.92;;;21.30;99.90;;;;;;4913351;28;206638;-68
2023/06/19 05:36:27;;;;;;;8.32;4.05;;;21.30;99.90;;;;;;4971463;28;20066;-68
2023/06/19 05:38:53;;;;;;;9.88;3.95;;;21.30;99.90;;;;;;4915079;28;208523;-68
2023/06/19 05:41:19;;;;;;;8.43;4.13;;;21.30;99.90;;;;;;4974384;28;20054;-69
2023/06/19 05:43:45;;;;;;;9.77;4.22;;;21.30;99.90;;;;;;4912675;28;207484;-68
2023/06/19 05:46:11;;;;;;;9.50;4.30;;;21.20;99.90;;;;;;4988632;28;20031;-68
2023/06/19 05:48:38;;;;;;;9.75;4.20;;;21.30;99.90;;;;;;4908683;28;207349;-68
2023/06/19 05:51:04;;;;;;;9.95;4.78;;;21.40;99.90;;;;;;4973769;28;20058;-69
2023/06/19 05:53:31;;;;;;;9.00;4.30;;;21.20;99.90;;;;;;4909744;28;249355;-69
2023/06/19 05:55:58;;;;;;;12.75;4.93;;;21.20;99.90;;;;;;5007705;28;20063;-70
2023/06/19 05:58:25;;;;;;;10.98;4.82;;;21.20;99.90;;;;;;4922792;28;207699;-70
2023/06/19 06:00:57;;;;;;;9.52;5.22;;;21.10;99.90;;;;;;4974984;28;20044;-71
2023/06/19 06:03:27;;;;;;;10.77;5.30;;;21.10;99.90;;;;;;4910273;28;206725;-70
2023/06/19 06:05:53;;;;;;;9.63;4.93;;;21.20;99.90;;;;;;4992614;28;20069;-70
2023/06/19 06:08:19;;;;;;;11.43;5.55;;;21.10;99.90;;;;;;4916228;28;207136;-70
2023/06/19 06:10:46;;;;;;;11.10;5.22;;;21.10;99.90;;;;;;4962955;28;20416;-70
2023/06/19 06:13:12;;;;;;;9.93;4.93;;;21.10;99.90;;;;;;4956211;28;210817;-70
2023/06/19 06:15:39;;;;;;;9.55;4.60;;;21.20;99.90;;;;;;4953828;28;30912;-71
2023/06/19 06:18:05;;;;;;;9.50;4.40;;;21.20;99.90;;;;;;4969019;28;20065;-70
2023/06/19 06:20:31;;;;;;;11.57;4.65;;;21.20;99.90;;;;;;4955591;28;207121;-70
2023/06/19 06:22:57;;;;;;;8.70;4.50;;;21.30;99.90;;;;;;4989234;28;20797;-70
2023/06/19 06:25:23;;;;;;;9.80;4.43;;;21.30;99.90;;;;;;4933001;28;210124;-70
2023/06/19 06:27:49;;;;;;;10.43;4.43;;;21.30;99.90;;;;;;4971566;28;20653;-70
2023/06/19 06:30:15;;;;;;;8.48;4.05;;;21.30;99.90;;;;;;4933831;28;219037;-70
2023/06/19 06:32:41;;;;;;;9.07;3.80;;;21.20;99.90;;;;;;4968059;28;20058;-70
2023/06/19 06:35:08;;;;;;;10.93;4.38;;;21.30;99.90;;;;;;4941230;28;208906;-71
2023/06/19 06:37:34;;;;;;;11.48;4.28;;;21.20;99.90;;;;;;4962505;28;20055;-71
2023/06/19 06:40:00;;;;;;;9.93;4.40;;;21.10;99.90;;;;;;4937492;28;209337;-70
2023/06/19 06:42:26;;;;;;;12.68;5.22;;;20.90;99.90;;;;;;4971450;28;20051;-70
2023/06/19 06:44:52;;;;;;;10.27;5.70;;;20.80;99.90;;;;;;4930777;28;209564;-70
2023/06/19 06:47:18;;;;;;;11.18;6.40;;;20.70;99.90;;;;;;4966856;28;20415;-71
2023/06/19 06:49:44;;;;;;;13.18;6.65;;;20.60;99.90;;;;;;4927561;28;149686;-70
2023/06/19 06:52:10;;;;;;;15.60;6.90;;;20.70;99.90;;;;;;4971510;28;20062;-70
2023/06/19 06:54:36;;;;;;;13.27;7.20;;;20.70;99.90;;;;;;4900106;28;208145;-71
2023/06/19 06:57:02;;;;;;;12.23;8.10;;;20.70;99.90;;;;;;4961784;28;20059;-70
2023/06/19 06:59:28;;;;;;;13.00;9.23;;;20.60;99.90;;;;;;4922146;28;206932;-70
2023/06/19 07:01:56;;;;;;;17.40;10.50;;;20.50;99.90;;;;;;4971686;28;20043;-70
2023/06/19 07:04:22;;;;;;;16.52;11.23;;;20.50;99.90;;;;;;4934961;28;207449;-70
2023/06/19 07:06:48;;;;;;;19.55;11.68;;;20.40;99.90;;;;;;4972378;28;20043;-69
2023/06/19 07:09:15;;;;;;;19.35;11.15;;;20.40;99.90;;;;;;4922176;28;214713;-69
2023/06/19 07:11:41;;;;;;;20.05;12.82;;;20.40;99.90;;;;;;4974313;28;20063;-71
2023/06/19 07:14:07;;;;;;;19.88;12.48;;;20.40;99.90;;;;;;4915137;28;210712;-71
2023/06/19 07:16:33;;;;;;;22.38;12.60;;;20.40;99.90;;;;;;4967574;28;20065;-71
2023/06/19 07:18:59;;;;;;;19.08;12.48;;;20.40;99.90;;;;;;4926033;28;206662;-72
2023/06/19 07:21:27;;;;;;;19.15;12.15;;;20.40;99.90;;;;;;4976932;28;20058;-72
2023/06/19 07:23:54;;;;;;;17.52;10.30;;;20.50;99.90;;;;;;4924656;28;212962;-71
2023/06/19 07:26:20;;;;;;;16.17;10.63;;;20.50;99.90;;;;;;4986131;28;20062;-71
2023/06/19 07:28:46;;;;;;;18.05;11.23;;;20.60;99.90;;;;;;4924117;28;207071;-71
2023/06/19 07:31:12;;;;;;;16.95;10.85;;;20.60;99.90;;;;;;4977417;28;20062;-71
2023/06/19 07:33:39;;;;;;;17.98;10.65;;;20.70;99.90;;;;;;4916838;28;218884;-71
2023/06/19 07:36:05;;;;;;;18.77;11.10;;;20.80;99.90;;;;;;4986746;28;20055;-72
2023/06/19 07:38:31;;;;;;;16.83;10.80;;;20.90;99.90;;;;;;4921084;28;209982;-72
2023/06/19 07:40:58;;;;;;;16.15;10.25;;;20.90;99.90;;;;;;5023070;28;20058;-72
2023/06/19 07:43:24;;;;;;;14.50;8.82;;;20.90;99.90;;;;;;4949110;28;207089;-72
2023/06/19 07:45:50;;;;;;;12.85;8.38;;;20.80;99.90;;;;;;5020046;28;20046;-72
2023/06/19 07:48:16;;;;;;;12.82;7.75;;;20.80;99.90;;;;;;4959165;28;207433;-70
2023/06/19 07:50:42;;;;;;;14.27;6.75;;;20.70;99.90;;;;;;5003740;28;20051;-73
2023/06/19 07:53:08;;;;;;;11.70;6.55;;;20.60;99.90;;;;;;4985463;28;20054;-71
2023/06/19 07:55:35;;;;;;;11.23;6.72;;;20.50;99.90;;;;;;4932171;28;249724;-71
2023/06/19 07:58:01;;;;;;;15.50;7.13;;;20.50;99.90;;;;;;4966878;28;20050;-72
2023/06/19 08:00:27;;;;;;;13.00;6.50;;;20.30;99.90;;;;;;4937665;28;208896;-71
2023/06/19 08:02:53;;;;;;;11.57;6.65;;;20.30;99.90;;;;;;4966220;28;20058;-72
2023/06/19 08:05:19;;;;;;;12.10;6.53;;;20.20;99.90;;;;;;4945914;28;217004;-72
2023/06/19 08:07:45;;;;;;;14.63;6.70;;;20.40;99.90;;;;;;4966248;28;20054;-71
2023/06/19 08:10:11;;;;;;;11.40;6.00;;;20.50;99.90;;;;;;4941171;28;211273;-71
2023/06/19 08:12:38;;;;;;;12.68;6.10;;;20.50;99.90;;;;;;4965923;28;20047;-70
2023/06/19 08:15:04;;;;;;;10.13;5.18;;;20.70;99.90;;;;;;4915494;28;211889;-71
2023/06/19 08:17:30;;;;;;;10.88;4.70;;;20.60;99.90;;;;;;4967376;28;20050;-69
2023/06/19 08:19:56;;;;;;;10.60;5.03;;;20.70;99.90;;;;;;4947587;28;233865;-70
2023/06/19 08:22:24;;;;;;;11.40;5.10;;;20.70;99.90;;;;;;4992309;28;20050;-69
2023/06/19 08:24:50;;;;;;;9.68;4.65;;;20.70;99.90;;;;;;4941599;28;209558;-70
2023/06/19 08:27:16;;;;;;;14.05;5.57;;;20.70;99.90;;;;;;4988127;28;20050;-70
2023/06/19 08:29:43;;;;;;;11.38;5.30;;;20.60;99.90;;;;;;4938224;28;209738;-70
2023/06/19 08:32:09;;;;;;;9.98;4.85;;;20.70;99.90;;;;;;4989203;28;20062;-70
2023/06/19 08:34:36;;;;;;;11.30;4.88;;;20.80;99.90;;;;;;4945375;28;205384;-71
2023/06/19 08:37:02;;;;;;;14.38;5.32;;;20.70;99.90;;;;;;4988166;28;20062;-70
2023/06/19 08:39:28;;;;;;;10.85;5.00;;;20.70;99.90;;;;;;4947212;28;211161;-70
2023/06/19 08:41:54;;;;;;;10.95;5.43;;;20.70;99.90;;;;;;4990140;28;20762;-69
2023/06/19 08:44:21;;;;;;;14.38;5.68;;;20.60;99.90;;;;;;4938810;28;207332;-70
2023/06/19 08:46:47;;;;;;;12.27;4.65;;;20.60;99.90;;;;;;4990558;28;20054;-70
2023/06/19 08:49:13;;;;;;;11.50;5.22;;;20.60;99.90;;;;;;4944939;28;207228;-70
2023/06/19 08:51:40;;;;;;;9.75;4.78;;;20.50;99.90;;;;;;4990058;28;20065;-70
2023/06/19 08:54:08;;;;;;;11.45;4.50;;;20.60;99.90;;;;;;4921826;28;210717;-70
2023/06/19 08:56:35;;;;;;;10.48;4.40;;;20.70;99.90;;;;;;4995214;28;20599;-70
2023/06/19 08:59:12;;;;;;;8.88;4.43;;;20.80;99.90;;;;;;4941479;28;207492;-69
2023/06/19 09:01:39;;;;;;;14.15;5.10;;;20.70;99.90;;;;;;4983268;28;20583;-70
2023/06/19 09:04:14;;;;;;;10.88;5.10;;;20.80;99.90;;;;;;4922272;28;207337;-69
2023/06/19 09:07:02;;;;;;;10.07;4.82;;;21.00;99.90;;;;;;4976814;28;20059;-70
2023/06/19 09:09:28;;;;;;;10.95;5.10;;;21.20;99.90;;;;;;4929668;28;214609;-69
2023/06/19 09:12:06;;;;;;;10.65;5.85;;;22.10;99.90;;;;;;4987669;28;20059;-70
2023/06/19 09:14:35;;;;;;;10.80;5.60;;;22.50;99.90;;;;;;4939746;28;208081;-70
2023/06/19 09:17:05;;;;;;;10.73;5.30;;;22.30;99.90;;;;;;4973623;28;20508;-70
2023/06/19 09:19:34;;;;;;;;;;;22.10;99.90;;;;;;4921842;28;219320;-70
2023/06/19 09:22:05;;;;;;;15.13;6.40;;;21.90;99.90;;;;;;4965302;28;19929;-69
2023/06/19 09:24:36;;;;;;;12.30;6.00;;;21.70;99.90;;;;;;4930486;28;223926;-70
2023/06/19 09:27:13;;;;;;;11.48;6.20;;;21.70;99.90;;;;;;4972287;28;20063;-69
2023/06/19 09:29:40;;;;;;;11.80;6.00;;;21.50;99.90;;;;;;4913937;28;215819;-69
2023/06/19 09:32:21;;;;;;;12.20;6.97;;;21.40;99.90;;;;;;4972737;28;20423;-69
2023/06/19 09:34:48;;;;;;;15.70;7.23;;;21.50;99.90;;;;;;4934052;28;207577;-68
2023/06/19 09:37:14;;;;;;;12.32;7.07;;;21.80;99.90;;;;;;4986086;28;20305;-69
2023/06/19 09:39:41;;;;;;;12.40;6.57;;;21.90;99.90;;;;;;4938875;28;210048;-69
2023/06/19 09:42:08;;;;;;;14.50;7.43;;;21.80;99.90;;;;;;4968463;28;20081;-70
2023/06/19 09:44:41;;;;;;;12.80;6.95;;;21.70;99.90;;;;;;4919993;28;218474;-69
2023/06/19 09:47:20;;;;;;;12.57;6.30;;;21.90;99.90;;;;;;4966198;28;20059;-69
2023/06/19 09:49:54;;;;;;;16.80;7.25;;;21.90;99.90;;;;;;4930831;28;207476;-70
2023/06/19 09:52:24;;;;;;;14.70;6.07;;;21.90;99.90;;;;;;4966584;28;20070;-69
2023/06/19 09:54:53;;;;;;;11.85;6.00;;;21.90;99.90;;;;;;4917242;28;213883;-69
2023/06/19 09:57:20;;;;;;;12.50;5.50;;;21.70;99.90;;;;;;4985879;28;20539;-70
2023/06/19 09:59:57;;;;;;;11.05;5.47;;;21.90;99.90;;;;;;4933717;28;110194;-70
2023/06/19 10:02:26;;;;;;;13.60;6.15;;;22.00;99.90;;;;;;4964871;28;20066;-69
2023/06/19 10:04:55;;;;;;;17.45;6.90;;;22.10;99.90;;;;;;4931631;28;207648;-69
2023/06/19 10:07:32;;;;;;;13.90;7.55;;;21.90;99.90;;;;;;4967001;28;20050;-69
2023/06/19 10:10:12;;;;;;;14.40;7.57;;;21.80;99.90;;;;;;4943374;28;215400;-69
2023/06/19 10:12:44;;;;;;;14.18;8.30;;;21.60;99.90;;;;;;4965304;28;20051;-69
2023/06/19 10:15:16;;;;;;;16.45;8.60;;;21.60;99.90;;;;;;4931290;28;211054;-70
2023/06/19 10:17:45;;;;;;;16.52;9.20;;;21.70;99.90;;;;;;4967861;28;20050;-70
2023/06/19 10:20:23;;;;;;;15.00;8.95;;;21.70;99.90;;;;;;4914363;28;208976;-69
2023/06/19 10:23:17;;;;;;;14.60;9.10;;;21.70;99.90;;;;;;4964857;28;20055;-69
2023/06/19 10:25:45;;;;;;;15.38;9.75;;;21.90;99.90;;;;;;4921503;28;102084;-72
2023/06/19 10:28:28;;;;;;;15.57;9.32;;;21.90;99.90;;;;;;4951089;28;207791;-69
2023/06/19 10:31:06;;;;;;;13.55;8.15;;;21.80;99.90;;;;;;4920829;28;21927;-69
2023/06/19 10:33:34;;;;;;;12.68;8.70;;;21.90;99.90;;;;;;4913974;28;206891;-69
2023/06/19 10:36:12;;;;;;;15.45;9.02;;;21.90;99.90;;;;;;4990079;28;20420;-69
2023/06/19 10:38:39;;;;;;;14.68;9.18;;;22.00;99.90;;;;;;4912976;28;208082;-69
2023/06/19 10:41:05;;;;;;;13.90;8.88;;;22.30;99.90;;;;;;4987232;28;20066;-69
2023/06/19 10:43:32;;;;;;;16.40;9.07;;;22.50;99.90;;;;;;4916865;28;216019;-69
2023/06/19 10:45:59;;;;;;;13.38;8.32;;;22.60;99.90;;;;;;4969852;28;20191;-69
2023/06/19 10:48:25;;;;;;;13.57;8.27;;;22.50;99.90;;;;;;4917167;28;210185;-69
2023/06/19 10:50:51;;;;;;;13.85;8.07;;;22.50;99.90;;;;;;4989610;28;20051;-69
2023/06/19 10:53:29;;;;;;;13.32;7.80;;;22.40;99.90;;;;;;4919774;28;221514;-68
2023/06/19 10:56:00;;;;;;;18.17;7.43;;;22.40;99.90;;;;;;4979880;28;89824;-68
2023/06/19 10:58:28;;;;;;;13.83;6.93;;;22.40;99.90;;;;;;4909787;28;207740;-69
2023/06/19 11:00:54;;;;;;;12.68;7.80;;;22.40;99.90;;;;;;4993193;28;20054;-69
2023/06/19 11:03:21;;;;;;;13.73;7.60;;;22.20;99.90;;;;;;4914291;28;216355;-68
2023/06/19 11:05:48;;;;;;;11.65;7.18;;;22.30;99.90;;;;;;4989198;28;20046;-69
2023/06/19 11:08:19;;;;;;;13.65;7.50;;;22.40;99.90;;;;;;4936326;28;218489;-69
2023/06/19 11:10:45;;;;;;;10.60;6.90;;;22.40;99.90;;;;;;4934060;28;20636;-69
2023/06/19 11:13:17;;;;;;;12.95;7.40;;;22.50;99.90;;;;;;4952638;28;207860;-69
2023/06/19 11:15:44;;;;;;;13.25;7.07;;;22.50;99.90;;;;;;4949597;28;65472;-70
2023/06/19 11:18:10;;;;;;;13.00;6.88;;;22.80;99.90;;;;;;4960007;28;207638;-67
2023/06/19 11:20:48;;;;;;;11.38;7.18;;;23.20;99.90;;;;;;4951056;28;203707;-70
2023/06/19 11:23:15;;;;;;;16.30;7.10;;;23.70;99.10;;;;;;4944357;28;212421;-70
2023/06/19 11:25:42;;;;;;;11.43;6.78;;;24.10;98.80;;;;;;4987683;28;20047;-70
2023/06/19 11:28:13;;;;;;;15.93;7.78;;;24.10;97.90;;;;;;4972518;28;20054;-70
2023/06/19 11:30:40;;;;;;;13.10;8.20;;;24.20;98.40;;;;;;4964990;28;64106;-70
2023/06/19 11:33:23;;;;;;;12.25;8.00;;;23.70;98.20;;;;;;4991350;28;20051;-69
2023/06/19 11:35:50;;;;;;;13.38;7.07;;;23.70;98.20;;;;;;4907767;28;128729;-70
2023/06/19 11:38:19;;;;;;;12.88;7.13;;;24.20;98.10;;;;;;4926740;28;210028;-72
2023/06/19 11:40:46;;;;;;;14.50;7.38;;;24.40;97.20;;;;;;4989551;28;20039;-71
2023/06/19 11:43:12;;;;;;;11.27;7.20;;;24.40;97.50;;;;;;4953562;28;207187;-72
2023/06/19 11:45:47;;;;;;;14.88;7.32;;;24.40;97.50;;;;;;4930259;28;207275;-71
2023/06/19 11:48:13;;;;;;;12.85;7.70;;;24.60;96.70;;;;;;4957686;28;215214;-72
2023/06/19 11:50:39;;;;;;;12.25;7.90;;;24.30;96.90;;;;;;4967233;28;216195;-72
2023/06/19 11:53:05;;;;;;;14.43;8.65;;;24.40;96.50;;;;;;4969837;28;20436;-71
2023/06/19 11:55:31;;;;;;;14.27;9.82;;;24.10;96.60;;;;;;4903733;28;207290;-69
2023/06/19 11:57:57;;;;;;;14.23;8.95;;;23.90;97.10;;;;;;4967224;28;20146;-69
2023/06/19 12:00:24;;;;;;;14.75;8.18;;;23.60;97.20;;;;;;4957386;28;216363;-71
2023/06/19 12:02:50;;;;;;;12.05;7.40;;;23.90;97.00;;;;;;4991244;28;20046;-71
2023/06/19 12:05:17;;;;;;;13.93;7.80;;;24.10;97.00;;;;;;4898850;28;216032;-71
2023/06/19 12:07:43;;;;;;;13.70;7.75;;;24.00;96.90;;;;;;4965898;28;20055;-71
2023/06/19 12:10:11;;;;;;;12.65;8.32;;;24.30;96.90;;;;;;4930050;28;207044;-72
2023/06/19 12:12:38;;;;;;;14.80;8.55;;;24.30;96.70;;;;;;4984219;28;20038;-71
2023/06/19 12:15:05;;;;;;;14.88;8.45;;;24.60;96.80;;;;;;4925946;28;204959;-72
2023/06/19 12:17:31;;;;;;;13.98;9.30;;;24.90;96.10;;;;;;4971517;28;20074;-72
2023/06/19 12:19:57;;;;;;;14.57;8.15;;;24.80;96.40;;;;;;4942493;28;208329;-72
2023/06/19 12:22:23;;;;;;;14.18;7.90;;;25.10;96.20;;;;;;4972031;28;20614;-72
2023/06/19 12:24:49;;;;;;;11.77;6.80;;;25.30;96.10;;;;;;4932610;28;210594;-72
2023/06/19 12:27:15;;;;;;;14.95;7.97;;;25.20;95.70;;;;;;4976073;28;20451;-72
2023/06/19 12:29:41;;;;;;;12.40;7.38;;;24.80;95.70;;;;;;4945197;28;207235;-72
2023/06/19 12:32:08;;;;;;;12.85;6.82;;;24.70;96.00;;;;;;4995421;28;20055;-72
2023/06/19 12:34:34;;;;;;;14.70;8.10;;;24.90;95.70;;;;;;4935440;28;169804;-72